JBU1294 KMCO-KHPN
Flight info
| Callsign | JBU1294 |
|---|---|
| Flight time | 2h 15m |
| Altitude | 37000 |
| Route | FATHE3 VIYAP Q87 JROSS JOHAR Q109 DFENC SAWED Q108 SIE BOUNO5 |
| Aircraft | A320/M-SDE3FGHIRWY/LB1 |
Departure
| Time | 2026-04-20 16:36 |
|---|---|
| Airport | Orlando International Airport (KMCO) |
Arrival
| Time | 2026-04-20 18:51 |
|---|---|
| Airport | Westchester County Airport (KHPN) |
| Time | Latitude | Longitude | Altitude | Speed | Heading |
|---|---|---|---|---|---|
| 2026-04-20 16:18 | 28.41224 | -81.31707 | 95 ft | 0 kts | 180° |
| 2026-04-20 16:23 | 28.41236 | -81.31707 | 97 ft | 3 kts | 180° |
| 2026-04-20 16:24 | 28.41257 | -81.31707 | 97 ft | 3 kts | 180° |
| 2026-04-20 16:24 | 28.41278 | -81.31707 | 95 ft | 3 kts | 180° |
| 2026-04-20 16:24 | 28.41298 | -81.31707 | 96 ft | 3 kts | 186° |
| 2026-04-20 16:24 | 28.41318 | -81.31701 | 96 ft | 3 kts | 221° |
| 2026-04-20 16:25 | 28.41329 | -81.31683 | 93 ft | 3 kts | 257° |
| 2026-04-20 16:25 | 28.41330 | -81.31671 | 93 ft | 0 kts | 270° |
| 2026-04-20 16:27 | 28.41330 | -81.31678 | 93 ft | 2 kts | 270° |
| 2026-04-20 16:27 | 28.41331 | -81.31708 | 94 ft | 5 kts | 270° |
| 2026-04-20 16:27 | 28.41331 | -81.31759 | 95 ft | 7 kts | 270° |
| 2026-04-20 16:28 | 28.41353 | -81.31799 | 98 ft | 8 kts | 335° |
| 2026-04-20 16:28 | 28.41440 | -81.31799 | 100 ft | 16 kts | 10° |
| 2026-04-20 16:28 | 28.41563 | -81.31791 | 97 ft | 19 kts | 0° |
| 2026-04-20 16:28 | 28.41701 | -81.31791 | 99 ft | 20 kts | 359° |
| 2026-04-20 16:29 | 28.41854 | -81.31792 | 99 ft | 25 kts | 360° |
| 2026-04-20 16:29 | 28.42028 | -81.31793 | 99 ft | 25 kts | 358° |
| 2026-04-20 16:29 | 28.42199 | -81.31777 | 99 ft | 20 kts | 11° |
| 2026-04-20 16:29 | 28.42265 | -81.31713 | 99 ft | 15 kts | 83° |
| 2026-04-20 16:30 | 28.42343 | -81.31654 | 99 ft | 14 kts | 50° |
| 2026-04-20 16:30 | 28.42349 | -81.31520 | 97 ft | 20 kts | 89° |
| 2026-04-20 16:30 | 28.42351 | -81.31351 | 95 ft | 23 kts | 90° |
| 2026-04-20 16:30 | 28.42340 | -81.31169 | 95 ft | 24 kts | 99° |
| 2026-04-20 16:31 | 28.42315 | -81.30973 | 94 ft | 26 kts | 89° |
| 2026-04-20 16:31 | 28.42329 | -81.30766 | 97 ft | 27 kts | 86° |
| 2026-04-20 16:31 | 28.42344 | -81.30558 | 95 ft | 27 kts | 85° |
| 2026-04-20 16:31 | 28.42358 | -81.30343 | 94 ft | 28 kts | 88° |
| 2026-04-20 16:32 | 28.42361 | -81.30126 | 94 ft | 28 kts | 89° |
| 2026-04-20 16:32 | 28.42363 | -81.29921 | 95 ft | 23 kts | 89° |
| 2026-04-20 16:32 | 28.42329 | -81.29796 | 96 ft | 17 kts | 165° |
| 2026-04-20 16:32 | 28.42184 | -81.29793 | 94 ft | 23 kts | 180° |
| 2026-04-20 16:33 | 28.42018 | -81.29789 | 96 ft | 25 kts | 178° |
| 2026-04-20 16:33 | 28.41837 | -81.29788 | 94 ft | 27 kts | 179° |
| 2026-04-20 16:33 | 28.41643 | -81.29783 | 95 ft | 29 kts | 179° |
| 2026-04-20 16:33 | 28.41439 | -81.29784 | 95 ft | 30 kts | 180° |
| 2026-04-20 16:34 | 28.41222 | -81.29781 | 96 ft | 32 kts | 179° |
| 2026-04-20 16:34 | 28.41004 | -81.29780 | 95 ft | 31 kts | 179° |
| 2026-04-20 16:34 | 28.40840 | -81.29771 | 94 ft | 17 kts | 157° |
| 2026-04-20 16:34 | 28.40821 | -81.29651 | 94 ft | 17 kts | 89° |
| 2026-04-20 16:35 | 28.40855 | -81.29561 | 93 ft | 13 kts | 11° |
| 2026-04-20 16:35 | 28.41048 | -81.29560 | 96 ft | 58 kts | 359° |
| 2026-04-20 16:35 | 28.41663 | -81.29568 | 99 ft | 116 kts | 359° |
| 2026-04-20 16:35 | 28.42630 | -81.29580 | 183 ft | 153 kts | 359° |
| 2026-04-20 16:36 | 28.43642 | -81.29587 | 1003 ft | 140 kts | 2° |
| 2026-04-20 16:36 | 28.44598 | -81.29560 | 1809 ft | 135 kts | 4° |
| 2026-04-20 16:36 | 28.45515 | -81.29238 | 2350 ft | 146 kts | 31° |
| 2026-04-20 16:36 | 28.46460 | -81.28625 | 2704 ft | 167 kts | 32° |
| 2026-04-20 16:37 | 28.47533 | -81.27920 | 3003 ft | 190 kts | 31° |
| 2026-04-20 16:37 | 28.48735 | -81.27130 | 3400 ft | 210 kts | 31° |
| 2026-04-20 16:37 | 28.50056 | -81.26259 | 3924 ft | 231 kts | 30° |
| 2026-04-20 16:37 | 28.51549 | -81.25428 | 4623 ft | 246 kts | 16° |
| 2026-04-20 16:38 | 28.53293 | -81.25183 | 5392 ft | 258 kts | 4° |
| 2026-04-20 16:38 | 28.55104 | -81.25075 | 6382 ft | 262 kts | 359° |
| 2026-04-20 16:38 | 28.56929 | -81.25113 | 7344 ft | 265 kts | 356° |
| 2026-04-20 16:38 | 28.58794 | -81.25216 | 8118 ft | 271 kts | 353° |
| 2026-04-20 16:39 | 28.60681 | -81.25440 | 8967 ft | 274 kts | 351° |
| 2026-04-20 16:39 | 28.62592 | -81.25730 | 9757 ft | 280 kts | 351° |
| 2026-04-20 16:39 | 28.64559 | -81.26044 | 10347 ft | 294 kts | 349° |
| 2026-04-20 16:39 | 28.66658 | -81.26377 | 10595 ft | 316 kts | 351° |
| 2026-04-20 16:40 | 28.68919 | -81.26723 | 10811 ft | 338 kts | 351° |
| 2026-04-20 16:40 | 28.71289 | -81.27066 | 11377 ft | 347 kts | 351° |
| 2026-04-20 16:40 | 28.73700 | -81.27400 | 12033 ft | 352 kts | 349° |
| 2026-04-20 16:40 | 28.76141 | -81.27735 | 12766 ft | 354 kts | 351° |
| 2026-04-20 16:41 | 28.78598 | -81.28073 | 13457 ft | 358 kts | 350° |
| 2026-04-20 16:41 | 28.80244 | -81.28301 | 13898 ft | 361 kts | 351° |
| 2026-04-20 16:41 | 28.82748 | -81.28645 | 14525 ft | 364 kts | 350° |
| 2026-04-20 16:41 | 28.85276 | -81.28980 | 15124 ft | 368 kts | 351° |
| 2026-04-20 16:42 | 28.87840 | -81.29247 | 15703 ft | 372 kts | 352° |
| 2026-04-20 16:42 | 28.90439 | -81.29469 | 16302 ft | 376 kts | 352° |
| 2026-04-20 16:42 | 28.93060 | -81.29669 | 16907 ft | 380 kts | 352° |
| 2026-04-20 16:42 | 28.95709 | -81.29867 | 17509 ft | 384 kts | 352° |
| 2026-04-20 16:43 | 28.98386 | -81.30075 | 18162 ft | 387 kts | 351° |
| 2026-04-20 16:43 | 29.01079 | -81.30305 | 18779 ft | 389 kts | 350° |
| 2026-04-20 16:43 | 29.03787 | -81.30581 | 19347 ft | 392 kts | 349° |
| 2026-04-20 16:43 | 29.06511 | -81.30891 | 19923 ft | 395 kts | 348° |
| 2026-04-20 16:44 | 29.09257 | -81.31219 | 20495 ft | 398 kts | 348° |
| 2026-04-20 16:44 | 29.12030 | -81.31534 | 21054 ft | 402 kts | 349° |
| 2026-04-20 16:44 | 29.14836 | -81.31767 | 21585 ft | 406 kts | 350° |
| 2026-04-20 16:44 | 29.17674 | -81.31938 | 22087 ft | 410 kts | 351° |
| 2026-04-20 16:45 | 29.20537 | -81.32078 | 22572 ft | 414 kts | 351° |
| 2026-04-20 16:45 | 29.23421 | -81.32210 | 23050 ft | 416 kts | 351° |
| 2026-04-20 16:45 | 29.26328 | -81.32353 | 23544 ft | 419 kts | 350° |
| 2026-04-20 16:45 | 29.29254 | -81.32514 | 23961 ft | 422 kts | 350° |
| 2026-04-20 16:46 | 29.32198 | -81.32689 | 24355 ft | 424 kts | 349° |
| 2026-04-20 16:46 | 29.35151 | -81.32870 | 24747 ft | 426 kts | 349° |
| 2026-04-20 16:46 | 29.38118 | -81.33056 | 25132 ft | 428 kts | 349° |
| 2026-04-20 16:46 | 29.41098 | -81.33243 | 25514 ft | 430 kts | 349° |
| 2026-04-20 16:47 | 29.44088 | -81.33426 | 25890 ft | 432 kts | 349° |
| 2026-04-20 16:47 | 29.47096 | -81.33605 | 26270 ft | 433 kts | 349° |
| 2026-04-20 16:47 | 29.50109 | -81.33783 | 26649 ft | 435 kts | 349° |
| 2026-04-20 16:47 | 29.53140 | -81.33966 | 27029 ft | 437 kts | 349° |
| 2026-04-20 16:48 | 29.56178 | -81.34150 | 27454 ft | 438 kts | 348° |
| 2026-04-20 16:48 | 29.59220 | -81.34335 | 27878 ft | 438 kts | 348° |
| 2026-04-20 16:48 | 29.62267 | -81.34516 | 28269 ft | 439 kts | 348° |
| 2026-04-20 16:48 | 29.65322 | -81.34698 | 28649 ft | 440 kts | 348° |
| 2026-04-20 16:49 | 29.68388 | -81.34877 | 28993 ft | 442 kts | 348° |
| 2026-04-20 16:49 | 29.71462 | -81.35053 | 29361 ft | 443 kts | 348° |
| 2026-04-20 16:49 | 29.74532 | -81.35224 | 29864 ft | 440 kts | 348° |
| 2026-04-20 16:49 | 29.77584 | -81.35391 | 30391 ft | 438 kts | 348° |
| 2026-04-20 16:50 | 29.80620 | -81.35557 | 30834 ft | 436 kts | 348° |
| 2026-04-20 16:50 | 29.83641 | -81.35723 | 31313 ft | 433 kts | 347° |
| 2026-04-20 16:50 | 29.86642 | -81.35891 | 31780 ft | 430 kts | 347° |
| 2026-04-20 16:50 | 29.89623 | -81.36065 | 32237 ft | 428 kts | 346° |
| 2026-04-20 16:51 | 29.92591 | -81.36242 | 32689 ft | 426 kts | 346° |
| 2026-04-20 16:51 | 29.95545 | -81.36417 | 33140 ft | 424 kts | 346° |
| 2026-04-20 16:51 | 29.98485 | -81.36588 | 33593 ft | 422 kts | 345° |
| 2026-04-20 16:51 | 30.01411 | -81.36757 | 34050 ft | 420 kts | 345° |
| 2026-04-20 16:52 | 30.04320 | -81.36926 | 34480 ft | 418 kts | 345° |
| 2026-04-20 16:52 | 30.07224 | -81.37095 | 34873 ft | 416 kts | 345° |
| 2026-04-20 16:52 | 30.10112 | -81.37262 | 35256 ft | 415 kts | 345° |
| 2026-04-20 16:52 | 30.12988 | -81.37429 | 35687 ft | 413 kts | 344° |
| 2026-04-20 16:53 | 30.15846 | -81.37594 | 36080 ft | 410 kts | 344° |
| 2026-04-20 16:53 | 30.18693 | -81.37759 | 36441 ft | 409 kts | 344° |
| 2026-04-20 16:53 | 30.21527 | -81.37925 | 36783 ft | 407 kts | 344° |
| 2026-04-20 16:53 | 30.24356 | -81.38088 | 37139 ft | 406 kts | 344° |
| 2026-04-20 16:54 | 30.27177 | -81.38251 | 37300 ft | 407 kts | 344° |
| 2026-04-20 16:54 | 30.30006 | -81.38416 | 37342 ft | 408 kts | 344° |
| 2026-04-20 16:54 | 30.35682 | -81.38751 | 37329 ft | 408 kts | 344° |
| 2026-04-20 16:55 | 30.41360 | -81.39085 | 37329 ft | 409 kts | 344° |
| 2026-04-20 16:55 | 30.47043 | -81.39411 | 37329 ft | 409 kts | 344° |
| 2026-04-20 16:56 | 30.52727 | -81.39708 | 37356 ft | 409 kts | 345° |
| 2026-04-20 16:56 | 30.58460 | -81.39997 | 37355 ft | 410 kts | 345° |
| 2026-04-20 16:57 | 30.64123 | -81.40290 | 37361 ft | 410 kts | 345° |
| 2026-04-20 16:57 | 30.69824 | -81.40593 | 37366 ft | 409 kts | 344° |
| 2026-04-20 16:58 | 30.75503 | -81.40903 | 37356 ft | 409 kts | 344° |
| 2026-04-20 16:58 | 30.81219 | -81.41214 | 37352 ft | 409 kts | 344° |
| 2026-04-20 16:59 | 30.86914 | -81.41522 | 37348 ft | 410 kts | 344° |
| 2026-04-20 16:59 | 30.92612 | -81.41826 | 37347 ft | 410 kts | 344° |
| 2026-04-20 17:00 | 31.01148 | -81.42272 | 37352 ft | 408 kts | 344° |
| 2026-04-20 17:01 | 31.06819 | -81.42577 | 37357 ft | 408 kts | 344° |
| 2026-04-20 17:01 | 31.12498 | -81.42878 | 37359 ft | 409 kts | 344° |
| 2026-04-20 17:02 | 31.18186 | -81.43184 | 37359 ft | 409 kts | 344° |
| 2026-04-20 17:02 | 31.23915 | -81.43292 | 37448 ft | 424 kts | 353° |
| 2026-04-20 17:02 | 31.26861 | -81.42578 | 37355 ft | 443 kts | 5° |
| 2026-04-20 17:03 | 31.29754 | -81.41149 | 37351 ft | 455 kts | 11° |
| 2026-04-20 17:03 | 31.35500 | -81.38009 | 37345 ft | 456 kts | 11° |
| 2026-04-20 17:04 | 31.41264 | -81.34873 | 37348 ft | 457 kts | 11° |
| 2026-04-20 17:04 | 31.47047 | -81.31737 | 37353 ft | 458 kts | 11° |
| 2026-04-20 17:05 | 31.52834 | -81.28595 | 37345 ft | 457 kts | 11° |
| 2026-04-20 17:05 | 31.58588 | -81.25456 | 37339 ft | 456 kts | 11° |
| 2026-04-20 17:06 | 31.64353 | -81.22314 | 37342 ft | 457 kts | 11° |
| 2026-04-20 17:06 | 31.70127 | -81.19166 | 37339 ft | 458 kts | 11° |
| 2026-04-20 17:07 | 31.75909 | -81.16008 | 37343 ft | 458 kts | 11° |
| 2026-04-20 17:07 | 31.81679 | -81.12843 | 37325 ft | 457 kts | 10° |
| 2026-04-20 17:08 | 31.87437 | -81.09682 | 37330 ft | 457 kts | 10° |
| 2026-04-20 17:08 | 31.93207 | -81.06521 | 37339 ft | 458 kts | 10° |
| 2026-04-20 17:09 | 31.98988 | -81.03345 | 37344 ft | 458 kts | 11° |
| 2026-04-20 17:09 | 32.04767 | -81.00138 | 37348 ft | 460 kts | 11° |
| 2026-04-20 17:10 | 32.10531 | -80.96898 | 37321 ft | 459 kts | 11° |
| 2026-04-20 17:10 | 32.16311 | -80.93653 | 37338 ft | 460 kts | 11° |
| 2026-04-20 17:11 | 32.22103 | -80.90410 | 37359 ft | 461 kts | 11° |
| 2026-04-20 17:11 | 32.27898 | -80.87155 | 37366 ft | 462 kts | 11° |
| 2026-04-20 17:12 | 32.33711 | -80.83882 | 37356 ft | 462 kts | 11° |
| 2026-04-20 17:12 | 32.39524 | -80.80600 | 37343 ft | 463 kts | 11° |
| 2026-04-20 17:13 | 32.45349 | -80.77316 | 37349 ft | 464 kts | 11° |
| 2026-04-20 17:13 | 32.51184 | -80.74024 | 37355 ft | 465 kts | 11° |
| 2026-04-20 17:14 | 32.57032 | -80.70720 | 37355 ft | 466 kts | 11° |
| 2026-04-20 17:14 | 32.62864 | -80.67412 | 37341 ft | 465 kts | 11° |
| 2026-04-20 17:15 | 32.68710 | -80.64069 | 37340 ft | 471 kts | 14° |
| 2026-04-20 17:15 | 32.71520 | -80.61930 | 37332 ft | 490 kts | 25° |
| 2026-04-20 17:15 | 32.74082 | -80.59147 | 37335 ft | 506 kts | 34° |
| 2026-04-20 17:16 | 32.78979 | -80.53122 | 37345 ft | 507 kts | 34° |
| 2026-04-20 17:16 | 32.83885 | -80.47081 | 37304 ft | 506 kts | 34° |
| 2026-04-20 17:17 | 32.88782 | -80.41062 | 37311 ft | 507 kts | 34° |
| 2026-04-20 17:17 | 32.93694 | -80.35028 | 37318 ft | 508 kts | 34° |
| 2026-04-20 17:18 | 32.98613 | -80.28968 | 37325 ft | 509 kts | 34° |
| 2026-04-20 17:18 | 33.03532 | -80.22890 | 37333 ft | 510 kts | 35° |
| 2026-04-20 17:19 | 33.08447 | -80.16810 | 37334 ft | 510 kts | 34° |
| 2026-04-20 17:19 | 33.13376 | -80.10707 | 37341 ft | 511 kts | 35° |
| 2026-04-20 17:20 | 33.17466 | -80.05627 | 37342 ft | 511 kts | 35° |
| 2026-04-20 17:20 | 33.22427 | -79.99469 | 37343 ft | 511 kts | 35° |
| 2026-04-20 17:21 | 33.27350 | -79.93346 | 37361 ft | 511 kts | 35° |
| 2026-04-20 17:21 | 33.32251 | -79.87211 | 37319 ft | 509 kts | 36° |
| 2026-04-20 17:22 | 33.37143 | -79.81089 | 37322 ft | 509 kts | 36° |
| 2026-04-20 17:22 | 33.42044 | -79.74964 | 37311 ft | 510 kts | 36° |
| 2026-04-20 17:23 | 33.46955 | -79.68824 | 37322 ft | 511 kts | 36° |
| 2026-04-20 17:23 | 33.51867 | -79.62662 | 37407 ft | 511 kts | 36° |
| 2026-04-20 17:24 | 33.56758 | -79.56496 | 37311 ft | 509 kts | 37° |
| 2026-04-20 17:24 | 33.61635 | -79.50333 | 37312 ft | 510 kts | 37° |
| 2026-04-20 17:25 | 33.66524 | -79.44165 | 37314 ft | 510 kts | 37° |
| 2026-04-20 17:25 | 33.71420 | -79.37981 | 37305 ft | 511 kts | 37° |
| 2026-04-20 17:26 | 33.76318 | -79.31773 | 37364 ft | 512 kts | 37° |
| 2026-04-20 17:26 | 33.81204 | -79.25563 | 37311 ft | 511 kts | 37° |
| 2026-04-20 17:27 | 33.86095 | -79.19351 | 37317 ft | 512 kts | 37° |
| 2026-04-20 17:27 | 33.90991 | -79.13125 | 37322 ft | 512 kts | 37° |
| 2026-04-20 17:28 | 33.95887 | -79.06871 | 37331 ft | 513 kts | 37° |
| 2026-04-20 17:28 | 34.00783 | -79.00607 | 37333 ft | 514 kts | 38° |
| 2026-04-20 17:29 | 34.05683 | -78.94324 | 37324 ft | 514 kts | 38° |
| 2026-04-20 17:29 | 34.10583 | -78.88036 | 37324 ft | 515 kts | 38° |
| 2026-04-20 17:30 | 34.15486 | -78.81727 | 37321 ft | 515 kts | 38° |
| 2026-04-20 17:30 | 34.20389 | -78.75419 | 37324 ft | 515 kts | 38° |
| 2026-04-20 17:31 | 34.25287 | -78.69101 | 37297 ft | 513 kts | 39° |
| 2026-04-20 17:31 | 34.30154 | -78.62801 | 37288 ft | 513 kts | 39° |
| 2026-04-20 17:32 | 34.35315 | -78.56971 | 37295 ft | 502 kts | 28° |
| 2026-04-20 17:32 | 34.40843 | -78.51779 | 37299 ft | 503 kts | 28° |
| 2026-04-20 17:33 | 34.46372 | -78.46576 | 37321 ft | 504 kts | 29° |
| 2026-04-20 17:33 | 34.51886 | -78.41343 | 37306 ft | 503 kts | 29° |
| 2026-04-20 17:34 | 34.57402 | -78.36092 | 37308 ft | 504 kts | 29° |
| 2026-04-20 17:34 | 34.62921 | -78.30842 | 37310 ft | 504 kts | 29° |
| 2026-04-20 17:35 | 34.68448 | -78.25591 | 37358 ft | 504 kts | 30° |
| 2026-04-20 17:35 | 34.73949 | -78.20349 | 37280 ft | 501 kts | 30° |
| 2026-04-20 17:36 | 34.79433 | -78.15108 | 37299 ft | 502 kts | 30° |
| 2026-04-20 17:36 | 34.84921 | -78.09854 | 37307 ft | 502 kts | 30° |
| 2026-04-20 17:37 | 34.90419 | -78.04597 | 37302 ft | 503 kts | 30° |
| 2026-04-20 17:37 | 34.95901 | -77.99363 | 37278 ft | 498 kts | 30° |
| 2026-04-20 17:38 | 35.01362 | -77.94148 | 37269 ft | 499 kts | 30° |
| 2026-04-20 17:38 | 35.06828 | -77.88913 | 37275 ft | 500 kts | 30° |
| 2026-04-20 17:39 | 35.12301 | -77.83650 | 37286 ft | 501 kts | 30° |
| 2026-04-20 17:39 | 35.17775 | -77.78369 | 37324 ft | 502 kts | 31° |
| 2026-04-20 17:40 | 35.23246 | -77.73089 | 37316 ft | 501 kts | 31° |
| 2026-04-20 17:40 | 35.28725 | -77.67805 | 37310 ft | 501 kts | 31° |
| 2026-04-20 17:41 | 35.34201 | -77.62526 | 37309 ft | 501 kts | 31° |
| 2026-04-20 17:41 | 35.39670 | -77.57232 | 37295 ft | 501 kts | 31° |
| 2026-04-20 17:42 | 35.45142 | -77.51915 | 37291 ft | 502 kts | 31° |
| 2026-04-20 17:42 | 35.50619 | -77.46578 | 37271 ft | 503 kts | 31° |
| 2026-04-20 17:43 | 35.56099 | -77.41244 | 37270 ft | 503 kts | 31° |
| 2026-04-20 17:43 | 35.61578 | -77.35895 | 37256 ft | 501 kts | 31° |
| 2026-04-20 17:44 | 35.67021 | -77.30566 | 37255 ft | 500 kts | 31° |
| 2026-04-20 17:44 | 35.72474 | -77.25231 | 37262 ft | 501 kts | 31° |
| 2026-04-20 17:45 | 35.77930 | -77.19891 | 37254 ft | 502 kts | 31° |
| 2026-04-20 17:45 | 35.83392 | -77.14524 | 37290 ft | 503 kts | 32° |
| 2026-04-20 17:46 | 35.88848 | -77.09135 | 37280 ft | 503 kts | 32° |
| 2026-04-20 17:46 | 35.94512 | -77.04187 | 37275 ft | 494 kts | 23° |
| 2026-04-20 17:47 | 36.00435 | -76.99879 | 37269 ft | 494 kts | 23° |
| 2026-04-20 17:47 | 36.06360 | -76.95573 | 37248 ft | 493 kts | 23° |
| 2026-04-20 17:48 | 36.12261 | -76.91263 | 37244 ft | 492 kts | 23° |
| 2026-04-20 17:48 | 36.18161 | -76.86948 | 37249 ft | 493 kts | 23° |
| 2026-04-20 17:49 | 36.24068 | -76.82613 | 37232 ft | 494 kts | 23° |
| 2026-04-20 17:49 | 36.29996 | -76.78262 | 37262 ft | 495 kts | 24° |
| 2026-04-20 17:50 | 36.35926 | -76.73895 | 37256 ft | 496 kts | 24° |
| 2026-04-20 17:50 | 36.41851 | -76.69516 | 37244 ft | 496 kts | 24° |
| 2026-04-20 17:51 | 36.47785 | -76.65130 | 37247 ft | 497 kts | 24° |
| 2026-04-20 17:51 | 36.53714 | -76.60741 | 37216 ft | 494 kts | 24° |
| 2026-04-20 17:52 | 36.59623 | -76.56368 | 37218 ft | 495 kts | 24° |
| 2026-04-20 17:52 | 36.65541 | -76.51982 | 37225 ft | 495 kts | 24° |
| 2026-04-20 17:53 | 36.71500 | -76.47549 | 37247 ft | 496 kts | 24° |
| 2026-04-20 17:53 | 36.77433 | -76.43132 | 37234 ft | 497 kts | 25° |
| 2026-04-20 17:54 | 36.83368 | -76.38699 | 37231 ft | 498 kts | 25° |
| 2026-04-20 17:54 | 36.89309 | -76.34248 | 37223 ft | 498 kts | 25° |
| 2026-04-20 17:55 | 36.95258 | -76.29788 | 37252 ft | 498 kts | 25° |
| 2026-04-20 17:55 | 37.01198 | -76.25327 | 37243 ft | 498 kts | 25° |
| 2026-04-20 17:56 | 37.07141 | -76.20870 | 37232 ft | 498 kts | 25° |
| 2026-04-20 17:56 | 37.13076 | -76.16391 | 37233 ft | 498 kts | 25° |
| 2026-04-20 17:57 | 37.19004 | -76.11910 | 37222 ft | 497 kts | 25° |
| 2026-04-20 17:57 | 37.23932 | -76.08187 | 37225 ft | 498 kts | 25° |
| 2026-04-20 17:58 | 37.29879 | -76.03683 | 37236 ft | 499 kts | 25° |
| 2026-04-20 17:58 | 37.35827 | -75.99170 | 37284 ft | 500 kts | 26° |
| 2026-04-20 17:59 | 37.41777 | -75.94648 | 37267 ft | 500 kts | 26° |
| 2026-04-20 17:59 | 37.47710 | -75.90134 | 37254 ft | 500 kts | 26° |
| 2026-04-20 18:00 | 37.53669 | -75.85585 | 37256 ft | 501 kts | 26° |
| 2026-04-20 18:00 | 37.59638 | -75.81067 | 37254 ft | 501 kts | 25° |
| 2026-04-20 18:01 | 37.65640 | -75.76594 | 37259 ft | 501 kts | 25° |
| 2026-04-20 18:01 | 37.71648 | -75.72111 | 37250 ft | 502 kts | 25° |
| 2026-04-20 18:02 | 37.77661 | -75.67594 | 37265 ft | 503 kts | 25° |
| 2026-04-20 18:02 | 37.83668 | -75.63052 | 37253 ft | 503 kts | 26° |
| 2026-04-20 18:03 | 37.89573 | -75.58258 | 37249 ft | 505 kts | 29° |
| 2026-04-20 18:03 | 37.95324 | -75.53125 | 37246 ft | 506 kts | 31° |
| 2026-04-20 18:04 | 38.01094 | -75.47921 | 37228 ft | 505 kts | 30° |
| 2026-04-20 18:04 | 38.06818 | -75.42904 | 37232 ft | 502 kts | 29° |
| 2026-04-20 18:05 | 38.15658 | -75.35745 | 37219 ft | 503 kts | 27° |
| 2026-04-20 18:05 | 38.21594 | -75.31015 | 37231 ft | 503 kts | 25° |
| 2026-04-20 18:06 | 38.27984 | -75.27634 | 37228 ft | 488 kts | 7° |
| 2026-04-20 18:06 | 38.34620 | -75.26139 | 37227 ft | 484 kts | 3° |
| 2026-04-20 18:07 | 38.41266 | -75.24745 | 37226 ft | 484 kts | 3° |
| 2026-04-20 18:07 | 38.47908 | -75.23337 | 37250 ft | 484 kts | 3° |
| 2026-04-20 18:08 | 38.54556 | -75.21948 | 37243 ft | 484 kts | 3° |
| 2026-04-20 18:08 | 38.61200 | -75.20574 | 37239 ft | 483 kts | 3° |
| 2026-04-20 18:09 | 38.67818 | -75.18983 | 37276 ft | 489 kts | 12° |
| 2026-04-20 18:09 | 38.73989 | -75.15093 | 37262 ft | 503 kts | 32° |
| 2026-04-20 18:10 | 38.79555 | -75.09631 | 37255 ft | 504 kts | 33° |
| 2026-04-20 18:10 | 38.85126 | -75.04156 | 37280 ft | 505 kts | 33° |
| 2026-04-20 18:11 | 38.90713 | -74.98675 | 37265 ft | 506 kts | 34° |
| 2026-04-20 18:11 | 38.96301 | -74.93168 | 37258 ft | 507 kts | 34° |
| 2026-04-20 18:12 | 39.01885 | -74.87644 | 37256 ft | 507 kts | 34° |
| 2026-04-20 18:12 | 39.07469 | -74.82106 | 37268 ft | 507 kts | 34° |
| 2026-04-20 18:13 | 39.13030 | -74.76528 | 37263 ft | 507 kts | 35° |
| 2026-04-20 18:13 | 39.18528 | -74.70827 | 37263 ft | 508 kts | 36° |
| 2026-04-20 18:14 | 39.24011 | -74.65076 | 37290 ft | 508 kts | 36° |
| 2026-04-20 18:14 | 39.29496 | -74.59367 | 37247 ft | 506 kts | 35° |
| 2026-04-20 18:15 | 39.34989 | -74.53665 | 37250 ft | 506 kts | 36° |
| 2026-04-20 18:15 | 39.40468 | -74.47951 | 37241 ft | 506 kts | 36° |
| 2026-04-20 18:16 | 39.45944 | -74.42222 | 37260 ft | 506 kts | 36° |
| 2026-04-20 18:16 | 39.51422 | -74.36485 | 37255 ft | 506 kts | 36° |
| 2026-04-20 18:17 | 39.56900 | -74.30731 | 37236 ft | 507 kts | 36° |
| 2026-04-20 18:17 | 39.62375 | -74.24963 | 37244 ft | 507 kts | 36° |
| 2026-04-20 18:18 | 39.67856 | -74.19193 | 37241 ft | 508 kts | 36° |
| 2026-04-20 18:18 | 39.73339 | -74.13418 | 37076 ft | 508 kts | 36° |
| 2026-04-20 18:19 | 39.76081 | -74.10520 | 36793 ft | 507 kts | 36° |
| 2026-04-20 18:19 | 39.78822 | -74.07618 | 35940 ft | 511 kts | 36° |
| 2026-04-20 18:19 | 39.81585 | -74.04686 | 35024 ft | 515 kts | 36° |
| 2026-04-20 18:19 | 39.84360 | -74.01732 | 34270 ft | 514 kts | 36° |
| 2026-04-20 18:20 | 39.87122 | -73.98786 | 33277 ft | 514 kts | 36° |
| 2026-04-20 18:20 | 39.89903 | -73.95825 | 32141 ft | 519 kts | 35° |
| 2026-04-20 18:20 | 39.92714 | -73.92830 | 30923 ft | 525 kts | 34° |
| 2026-04-20 18:20 | 39.95556 | -73.89806 | 29598 ft | 531 kts | 34° |
| 2026-04-20 18:21 | 39.98404 | -73.86772 | 28347 ft | 523 kts | 34° |
| 2026-04-20 18:21 | 40.01177 | -73.83800 | 27412 ft | 506 kts | 35° |
| 2026-04-20 18:21 | 40.03836 | -73.80937 | 26687 ft | 487 kts | 35° |
| 2026-04-20 18:21 | 40.06411 | -73.78168 | 25921 ft | 474 kts | 35° |
| 2026-04-20 18:22 | 40.08960 | -73.75435 | 25161 ft | 473 kts | 35° |
| 2026-04-20 18:22 | 40.11492 | -73.72726 | 24419 ft | 470 kts | 35° |
| 2026-04-20 18:22 | 40.14029 | -73.70015 | 23638 ft | 472 kts | 35° |
| 2026-04-20 18:22 | 40.16564 | -73.67300 | 22829 ft | 470 kts | 35° |
| 2026-04-20 18:23 | 40.19075 | -73.64599 | 22071 ft | 465 kts | 36° |
| 2026-04-20 18:23 | 40.21561 | -73.61917 | 21352 ft | 461 kts | 36° |
| 2026-04-20 18:23 | 40.24025 | -73.59257 | 20627 ft | 457 kts | 36° |
| 2026-04-20 18:23 | 40.26468 | -73.56621 | 19920 ft | 453 kts | 36° |
| 2026-04-20 18:24 | 40.28881 | -73.54011 | 19251 ft | 448 kts | 36° |
| 2026-04-20 18:24 | 40.31267 | -73.51426 | 18610 ft | 442 kts | 36° |
| 2026-04-20 18:24 | 40.33625 | -73.48872 | 17921 ft | 437 kts | 36° |
| 2026-04-20 18:24 | 40.36093 | -73.46646 | 17360 ft | 425 kts | 26° |
| 2026-04-20 18:25 | 40.38717 | -73.45044 | 17176 ft | 410 kts | 16° |
| 2026-04-20 18:25 | 40.41436 | -73.43971 | 17046 ft | 407 kts | 11° |
| 2026-04-20 18:25 | 40.44150 | -73.43001 | 16830 ft | 403 kts | 11° |
| 2026-04-20 18:25 | 40.46856 | -73.42031 | 16516 ft | 402 kts | 11° |
| 2026-04-20 18:26 | 40.49552 | -73.41062 | 16398 ft | 402 kts | 11° |
| 2026-04-20 18:26 | 40.52243 | -73.40090 | 16274 ft | 401 kts | 11° |
| 2026-04-20 18:26 | 40.54928 | -73.39119 | 16147 ft | 400 kts | 11° |
| 2026-04-20 18:26 | 40.57613 | -73.38150 | 16026 ft | 399 kts | 12° |
| 2026-04-20 18:27 | 40.60286 | -73.37187 | 15894 ft | 398 kts | 12° |
| 2026-04-20 18:27 | 40.62958 | -73.36225 | 15770 ft | 398 kts | 12° |
| 2026-04-20 18:27 | 40.65619 | -73.35265 | 15638 ft | 393 kts | 12° |
| 2026-04-20 18:27 | 40.68199 | -73.34328 | 15511 ft | 376 kts | 12° |
| 2026-04-20 18:28 | 40.70666 | -73.33429 | 15382 ft | 360 kts | 12° |
| 2026-04-20 18:28 | 40.73035 | -73.32568 | 15252 ft | 346 kts | 11° |
| 2026-04-20 18:28 | 40.75315 | -73.31739 | 15118 ft | 334 kts | 11° |
| 2026-04-20 18:28 | 40.77478 | -73.30722 | 14954 ft | 330 kts | 23° |
| 2026-04-20 18:29 | 40.79379 | -73.29069 | 14825 ft | 329 kts | 39° |
| 2026-04-20 18:29 | 40.80923 | -73.26845 | 14524 ft | 330 kts | 54° |
| 2026-04-20 18:29 | 40.82185 | -73.24272 | 14174 ft | 328 kts | 57° |
| 2026-04-20 18:29 | 40.83418 | -73.21745 | 13815 ft | 327 kts | 57° |
| 2026-04-20 18:30 | 40.84648 | -73.19237 | 13455 ft | 324 kts | 56° |
| 2026-04-20 18:30 | 40.85873 | -73.16750 | 13131 ft | 322 kts | 56° |
| 2026-04-20 18:30 | 40.87092 | -73.14279 | 12774 ft | 320 kts | 56° |
| 2026-04-20 18:30 | 40.88292 | -73.11852 | 12389 ft | 319 kts | 56° |
| 2026-04-20 18:31 | 40.89514 | -73.09370 | 12009 ft | 317 kts | 56° |
| 2026-04-20 18:31 | 40.90710 | -73.06926 | 11632 ft | 316 kts | 56° |
| 2026-04-20 18:31 | 40.91899 | -73.04492 | 11256 ft | 315 kts | 56° |
| 2026-04-20 18:31 | 40.93085 | -73.02064 | 10910 ft | 313 kts | 56° |
| 2026-04-20 18:32 | 40.94259 | -72.99660 | 10621 ft | 310 kts | 55° |
| 2026-04-20 18:32 | 40.95423 | -72.97277 | 10324 ft | 307 kts | 55° |
| 2026-04-20 18:32 | 40.96579 | -72.94907 | 10020 ft | 305 kts | 55° |
| 2026-04-20 18:32 | 40.97725 | -72.92556 | 9718 ft | 302 kts | 55° |
| 2026-04-20 18:33 | 40.98857 | -72.90229 | 9441 ft | 300 kts | 55° |
| 2026-04-20 18:33 | 40.99982 | -72.87916 | 9151 ft | 298 kts | 55° |
| 2026-04-20 18:33 | 41.01224 | -72.85756 | 8864 ft | 292 kts | 41° |
| 2026-04-20 18:33 | 41.02857 | -72.84220 | 8585 ft | 285 kts | 22° |
| 2026-04-20 18:34 | 41.04715 | -72.83436 | 8317 ft | 278 kts | 4° |
| 2026-04-20 18:34 | 41.06611 | -72.83410 | 8043 ft | 270 kts | 347° |
| 2026-04-20 18:34 | 41.07829 | -72.83709 | 7861 ft | 269 kts | 345° |
| 2026-04-20 18:34 | 41.09658 | -72.84183 | 7594 ft | 267 kts | 345° |
| 2026-04-20 18:35 | 41.11478 | -72.84653 | 7327 ft | 266 kts | 345° |
| 2026-04-20 18:35 | 41.13237 | -72.85326 | 7052 ft | 261 kts | 330° |
| 2026-04-20 18:35 | 41.14652 | -72.86762 | 6798 ft | 255 kts | 308° |
| 2026-04-20 18:35 | 41.15529 | -72.88773 | 6538 ft | 252 kts | 287° |
| 2026-04-20 18:36 | 41.15783 | -72.91062 | 6262 ft | 252 kts | 271° |
| 2026-04-20 18:36 | 41.15818 | -72.93382 | 6067 ft | 252 kts | 271° |
| 2026-04-20 18:36 | 41.15849 | -72.95709 | 6022 ft | 252 kts | 272° |
| 2026-04-20 18:36 | 41.15880 | -72.98022 | 6024 ft | 251 kts | 272° |
| 2026-04-20 18:37 | 41.15912 | -73.00340 | 6024 ft | 251 kts | 272° |
| 2026-04-20 18:37 | 41.15944 | -73.02650 | 6023 ft | 251 kts | 272° |
| 2026-04-20 18:37 | 41.15974 | -73.04976 | 5698 ft | 253 kts | 272° |
| 2026-04-20 18:37 | 41.16005 | -73.07290 | 5562 ft | 250 kts | 272° |
| 2026-04-20 18:38 | 41.16037 | -73.09599 | 5475 ft | 252 kts | 272° |
| 2026-04-20 18:38 | 41.16068 | -73.11911 | 5392 ft | 250 kts | 273° |
| 2026-04-20 18:38 | 41.16157 | -73.14218 | 5316 ft | 252 kts | 276° |
| 2026-04-20 18:38 | 41.16323 | -73.16530 | 5241 ft | 250 kts | 278° |
| 2026-04-20 18:39 | 41.16514 | -73.18817 | 5161 ft | 251 kts | 278° |
| 2026-04-20 18:39 | 41.16710 | -73.21110 | 5091 ft | 249 kts | 278° |
| 2026-04-20 18:39 | 41.16902 | -73.23405 | 5007 ft | 251 kts | 277° |
| 2026-04-20 18:39 | 41.17090 | -73.25711 | 4931 ft | 252 kts | 277° |
| 2026-04-20 18:40 | 41.17273 | -73.28019 | 4855 ft | 252 kts | 277° |
| 2026-04-20 18:40 | 41.17453 | -73.30329 | 4767 ft | 251 kts | 277° |
| 2026-04-20 18:40 | 41.17627 | -73.32629 | 4693 ft | 250 kts | 278° |
| 2026-04-20 18:40 | 41.17801 | -73.34914 | 4617 ft | 250 kts | 277° |
| 2026-04-20 18:41 | 41.17975 | -73.37208 | 4541 ft | 249 kts | 277° |
| 2026-04-20 18:41 | 41.18149 | -73.39505 | 4468 ft | 251 kts | 277° |
| 2026-04-20 18:41 | 41.18322 | -73.41814 | 4393 ft | 251 kts | 277° |
| 2026-04-20 18:41 | 41.18291 | -73.44124 | 4313 ft | 253 kts | 258° |
| 2026-04-20 18:42 | 41.17443 | -73.46168 | 4235 ft | 258 kts | 227° |
| 2026-04-20 18:42 | 41.15911 | -73.47444 | 4112 ft | 266 kts | 203° |
| 2026-04-20 18:42 | 41.14140 | -73.48150 | 4000 ft | 266 kts | 197° |
| 2026-04-20 18:42 | 41.12353 | -73.48784 | 4003 ft | 266 kts | 197° |
| 2026-04-20 18:43 | 41.10558 | -73.49400 | 3952 ft | 266 kts | 197° |
| 2026-04-20 18:43 | 41.08747 | -73.49915 | 3634 ft | 266 kts | 190° |
| 2026-04-20 18:43 | 41.06917 | -73.50175 | 3429 ft | 262 kts | 187° |
| 2026-04-20 18:43 | 41.05132 | -73.50383 | 3292 ft | 253 kts | 187° |
| 2026-04-20 18:44 | 41.03399 | -73.50569 | 3094 ft | 247 kts | 186° |
| 2026-04-20 18:44 | 41.01695 | -73.50754 | 3001 ft | 245 kts | 187° |
| 2026-04-20 18:44 | 41.00024 | -73.50946 | 3005 ft | 237 kts | 187° |
| 2026-04-20 18:44 | 40.98380 | -73.51130 | 3007 ft | 236 kts | 187° |
| 2026-04-20 18:45 | 40.96744 | -73.51315 | 3005 ft | 236 kts | 187° |
| 2026-04-20 18:45 | 40.95113 | -73.51504 | 3006 ft | 234 kts | 187° |
| 2026-04-20 18:45 | 40.93536 | -73.51689 | 3004 ft | 221 kts | 187° |
| 2026-04-20 18:45 | 40.92021 | -73.51866 | 3004 ft | 217 kts | 188° |
| 2026-04-20 18:46 | 40.90619 | -73.52434 | 3002 ft | 210 kts | 219° |
| 2026-04-20 18:46 | 40.89712 | -73.53873 | 3010 ft | 203 kts | 249° |
| 2026-04-20 18:46 | 40.89459 | -73.55656 | 3007 ft | 196 kts | 278° |
| 2026-04-20 18:46 | 40.89866 | -73.57342 | 3007 ft | 192 kts | 304° |
| 2026-04-20 18:47 | 40.90817 | -73.58562 | 3009 ft | 193 kts | 329° |
| 2026-04-20 18:47 | 40.91982 | -73.59449 | 3011 ft | 193 kts | 329° |
| 2026-04-20 18:47 | 40.93152 | -73.60336 | 3007 ft | 194 kts | 329° |
| 2026-04-20 18:47 | 40.94293 | -73.61203 | 3033 ft | 183 kts | 329° |
| 2026-04-20 18:48 | 40.95376 | -73.62027 | 2873 ft | 177 kts | 329° |
| 2026-04-20 18:48 | 40.96434 | -73.62834 | 2652 ft | 174 kts | 329° |
| 2026-04-20 18:48 | 40.97491 | -73.63640 | 2423 ft | 173 kts | 330° |
| 2026-04-20 18:48 | 40.98528 | -73.64431 | 2192 ft | 172 kts | 329° |
| 2026-04-20 18:49 | 40.99532 | -73.65197 | 1956 ft | 164 kts | 329° |
| 2026-04-20 18:49 | 41.00477 | -73.65918 | 1753 ft | 152 kts | 329° |
| 2026-04-20 18:49 | 41.01343 | -73.66578 | 1546 ft | 135 kts | 329° |
| 2026-04-20 18:49 | 41.02144 | -73.67190 | 1349 ft | 128 kts | 329° |
| 2026-04-20 18:50 | 41.02898 | -73.67766 | 1163 ft | 125 kts | 329° |
| 2026-04-20 18:50 | 41.03645 | -73.68328 | 1001 ft | 125 kts | 328° |
| 2026-04-20 18:50 | 41.04395 | -73.68912 | 898 ft | 126 kts | 328° |
| 2026-04-20 18:50 | 41.05138 | -73.69475 | 686 ft | 122 kts | 326° |
| 2026-04-20 18:51 | 41.05878 | -73.70044 | 486 ft | 121 kts | 326° |
| 2026-04-20 18:51 | 41.06555 | -73.70566 | 410 ft | 87 kts | 330° |
| 2026-04-20 18:51 | 41.06852 | -73.70792 | 419 ft | 29 kts | 329° |
| 2026-04-20 18:51 | 41.07003 | -73.70907 | 412 ft | 19 kts | 330° |
| 2026-04-20 18:52 | 41.07090 | -73.70939 | 410 ft | 13 kts | 30° |
| 2026-04-20 18:52 | 41.07102 | -73.70832 | 416 ft | 13 kts | 94° |
| 2026-04-20 18:52 | 41.07051 | -73.70729 | 416 ft | 16 kts | 149° |
| 2026-04-20 18:52 | 41.06952 | -73.70653 | 412 ft | 14 kts | 150° |
| 2026-04-20 18:53 | 41.06871 | -73.70589 | 416 ft | 11 kts | 151° |
| 2026-04-20 18:53 | 41.06806 | -73.70542 | 419 ft | 8 kts | 149° |
| 2026-04-20 18:53 | 41.06796 | -73.70488 | 420 ft | 4 kts | 60° |
| 2026-04-20 18:53 | 41.06805 | -73.70467 | 415 ft | 1 kts | 59° |
| 2026-04-20 18:54 | 41.06806 | -73.70466 | 415 ft | 0 kts | 59° |